sensor_id;sensor_type;location;lat;lon;timestamp;temperature;humidity
1453;DHT22;720;47.738;7.998;2022-11-30T00:00:20;7.10;99.90
1453;DHT22;720;47.738;7.998;2022-11-30T00:02:46;7.10;99.90
1453;DHT22;720;47.738;7.998;2022-11-30T00:05:14;7.10;99.90
1453;DHT22;720;47.738;7.998;2022-11-30T00:07:40;7.10;99.90
1453;DHT22;720;47.738;7.998;2022-11-30T00:10:06;7.20;99.90
1453;DHT22;720;47.738;7.998;2022-11-30T00:12:32;7.20;99.90
1453;DHT22;720;47.738;7.998;2022-11-30T00:14:58;7.10;99.90
1453;DHT22;720;47.738;7.998;2022-11-30T00:17:23;7.20;99.90
1453;DHT22;720;47.738;7.998;2022-11-30T00:19:49;7.20;99.90
1453;DHT22;720;47.738;7.998;2022-11-30T00:22:15;7.20;99.90
1453;DHT22;720;47.738;7.998;2022-11-30T00:24:40;7.20;99.90
1453;DHT22;720;47.738;7.998;2022-11-30T00:27:06;7.20;99.90
1453;DHT22;720;47.738;7.998;2022-11-30T00:29:31;7.20;99.90
1453;DHT22;720;47.738;7.998;2022-11-30T00:31:57;7.10;99.90
1453;DHT22;720;47.738;7.998;2022-11-30T00:34:23;7.00;99.90
1453;DHT22;720;47.738;7.998;2022-11-30T00:36:48;7.00;99.90
1453;DHT22;720;47.738;7.998;2022-11-30T00:39:14;7.00;99.90
1453;DHT22;720;47.738;7.998;2022-11-30T00:41:39;6.90;99.90
1453;DHT22;720;47.738;7.998;2022-11-30T00:44:05;7.00;99.90
1453;DHT22;720;47.738;7.998;2022-11-30T00:46:31;6.90;99.90
1453;DHT22;720;47.738;7.998;2022-11-30T00:48:56;6.90;99.90
1453;DHT22;720;47.738;7.998;2022-11-30T00:51:22;6.90;99.90
1453;DHT22;720;47.738;7.998;2022-11-30T00:53:47;7.00;99.90
1453;DHT22;720;47.738;7.998;2022-11-30T00:56:13;6.90;99.90
1453;DHT22;720;47.738;7.998;2022-11-30T00:58:39;6.90;99.90
1453;DHT22;720;47.738;7.998;2022-11-30T01:01:06;6.80;99.90
1453;DHT22;720;47.738;7.998;2022-11-30T01:03:32;6.70;99.90
1453;DHT22;720;47.738;7.998;2022-11-30T01:06:02;6.80;99.90
1453;DHT22;720;47.738;7.998;2022-11-30T01:08:28;6.90;99.90
1453;DHT22;720;47.738;7.998;2022-11-30T01:10:54;6.80;99.90
1453;DHT22;720;47.738;7.998;2022-11-30T01:13:22;6.80;99.90
1453;DHT22;720;47.738;7.998;2022-11-30T01:15:48;6.80;99.90
1453;DHT22;720;47.738;7.998;2022-11-30T01:18:14;6.80;99.90
1453;DHT22;720;47.738;7.998;2022-11-30T01:20:41;6.90;99.90
1453;DHT22;720;47.738;7.998;2022-11-30T01:23:07;6.90;99.90
1453;DHT22;720;47.738;7.998;2022-11-30T01:25:33;6.90;99.90
1453;DHT22;720;47.738;7.998;2022-11-30T01:27:58;6.90;99.90
1453;DHT22;720;47.738;7.998;2022-11-30T01:30:24;6.80;99.90
1453;DHT22;720;47.738;7.998;2022-11-30T01:32:50;6.80;99.90
1453;DHT22;720;47.738;7.998;2022-11-30T01:35:16;6.90;99.90
1453;DHT22;720;47.738;7.998;2022-11-30T01:37:41;6.90;99.90
1453;DHT22;720;47.738;7.998;2022-11-30T01:40:09;6.90;99.90
1453;DHT22;720;47.738;7.998;2022-11-30T01:42:35;7.00;99.90
1453;DHT22;720;47.738;7.998;2022-11-30T01:45:04;6.90;99.90
1453;DHT22;720;47.738;7.998;2022-11-30T01:47:33;7.00;99.90
1453;DHT22;720;47.738;7.998;2022-11-30T01:50:16;6.90;99.90
1453;DHT22;720;47.738;7.998;2022-11-30T01:52:47;6.90;99.90
1453;DHT22;720;47.738;7.998;2022-11-30T01:55:23;6.90;99.90
1453;DHT22;720;47.738;7.998;2022-11-30T01:58:07;6.90;99.90
1453;DHT22;720;47.738;7.998;2022-11-30T02:00:34;6.90;99.90
1453;DHT22;720;47.738;7.998;2022-11-30T02:05:33;6.80;99.90
1453;DHT22;720;47.738;7.998;2022-11-30T02:08:00;6.80;99.90
1453;DHT22;720;47.738;7.998;2022-11-30T02:10:29;6.90;99.90
1453;DHT22;720;47.738;7.998;2022-11-30T02:15:36;6.90;99.90
1453;DHT22;720;47.738;7.998;2022-11-30T02:18:12;6.80;99.90
1453;DHT22;720;47.738;7.998;2022-11-30T02:23:31;6.70;99.90
1453;DHT22;720;47.738;7.998;2022-11-30T02:29:05;6.70;99.90
1453;DHT22;720;47.738;7.998;2022-11-30T02:32:03;6.70;99.90
1453;DHT22;720;47.738;7.998;2022-11-30T02:34:33;6.60;99.90
1453;DHT22;720;47.738;7.998;2022-11-30T02:37:00;6.50;99.90
1453;DHT22;720;47.738;7.998;2022-11-30T02:39:27;6.40;99.90
1453;DHT22;720;47.738;7.998;2022-11-30T02:41:53;6.40;99.90
1453;DHT22;720;47.738;7.998;2022-11-30T02:44:20;6.30;99.90
1453;DHT22;720;47.738;7.998;2022-11-30T02:49:27;6.20;99.90
1453;DHT22;720;47.738;7.998;2022-11-30T02:51:54;6.10;99.90
1453;DHT22;720;47.738;7.998;2022-11-30T02:54:20;6.10;99.90
1453;DHT22;720;47.738;7.998;2022-11-30T02:56:46;6.10;99.90
1453;DHT22;720;47.738;7.998;2022-11-30T02:59:12;6.10;99.90
1453;DHT22;720;47.738;7.998;2022-11-30T03:01:38;6.10;99.90
1453;DHT22;720;47.738;7.998;2022-11-30T03:04:04;6.10;99.90
1453;DHT22;720;47.738;7.998;2022-11-30T03:06:29;6.10;99.90
1453;DHT22;720;47.738;7.998;2022-11-30T03:08:55;6.10;99.90
1453;DHT22;720;47.738;7.998;2022-11-30T03:11:21;6.10;99.90
1453;DHT22;720;47.738;7.998;2022-11-30T03:13:47;6.10;99.90
1453;DHT22;720;47.738;7.998;2022-11-30T03:16:12;6.10;99.90
1453;DHT22;720;47.738;7.998;2022-11-30T03:18:39;6.10;99.90
1453;DHT22;720;47.738;7.998;2022-11-30T03:21:09;6.10;99.90
1453;DHT22;720;47.738;7.998;2022-11-30T03:23:35;6.00;99.90
1453;DHT22;720;47.738;7.998;2022-11-30T03:26:02;6.00;99.90
1453;DHT22;720;47.738;7.998;2022-11-30T03:28:28;5.80;99.90
1453;DHT22;720;47.738;7.998;2022-11-30T03:30:54;5.70;99.90
1453;DHT22;720;47.738;7.998;2022-11-30T03:33:19;5.80;99.90
1453;DHT22;720;47.738;7.998;2022-11-30T03:35:46;5.90;99.90
1453;DHT22;720;47.738;7.998;2022-11-30T03:38:11;5.90;99.90
1453;DHT22;720;47.738;7.998;2022-11-30T03:40:37;5.80;99.90
1453;DHT22;720;47.738;7.998;2022-11-30T03:43:03;5.90;99.90
1453;DHT22;720;47.738;7.998;2022-11-30T03:45:29;5.90;99.90
1453;DHT22;720;47.738;7.998;2022-11-30T03:47:55;5.90;99.90
1453;DHT22;720;47.738;7.998;2022-11-30T03:50:21;5.90;99.90
1453;DHT22;720;47.738;7.998;2022-11-30T03:52:47;5.80;99.90
1453;DHT22;720;47.738;7.998;2022-11-30T03:55:13;5.80;99.90
1453;DHT22;720;47.738;7.998;2022-11-30T03:57:38;5.90;99.90
1453;DHT22;720;47.738;7.998;2022-11-30T04:00:05;5.90;99.90
1453;DHT22;720;47.738;7.998;2022-11-30T04:02:31;5.90;99.90
1453;DHT22;720;47.738;7.998;2022-11-30T04:04:57;6.00;99.90
1453;DHT22;720;47.738;7.998;2022-11-30T04:07:22;5.90;99.90
1453;DHT22;720;47.738;7.998;2022-11-30T04:09:48;5.90;99.90
1453;DHT22;720;47.738;7.998;2022-11-30T04:12:14;5.90;99.90
1453;DHT22;720;47.738;7.998;2022-11-30T04:14:39;5.90;99.90
1453;DHT22;720;47.738;7.998;2022-11-30T04:17:05;5.80;99.90
1453;DHT22;720;47.738;7.998;2022-11-30T04:19:31;5.80;99.90
1453;DHT22;720;47.738;7.998;2022-11-30T04:21:57;5.80;99.90
1453;DHT22;720;47.738;7.998;2022-11-30T04:24:22;5.70;99.90
1453;DHT22;720;47.738;7.998;2022-11-30T04:26:48;5.80;99.90
1453;DHT22;720;47.738;7.998;2022-11-30T04:29:13;5.80;99.90
1453;DHT22;720;47.738;7.998;2022-11-30T04:31:39;5.80;99.90
1453;DHT22;720;47.738;7.998;2022-11-30T04:34:05;5.80;99.90
1453;DHT22;720;47.738;7.998;2022-11-30T04:36:30;5.80;99.90
1453;DHT22;720;47.738;7.998;2022-11-30T04:38:56;5.90;99.90
1453;DHT22;720;47.738;7.998;2022-11-30T04:41:22;6.00;99.90
1453;DHT22;720;47.738;7.998;2022-11-30T04:43:47;6.00;99.90
1453;DHT22;720;47.738;7.998;2022-11-30T04:46:13;6.00;99.90
1453;DHT22;720;47.738;7.998;2022-11-30T04:48:39;5.90;99.90
1453;DHT22;720;47.738;7.998;2022-11-30T04:51:06;5.90;99.90
1453;DHT22;720;47.738;7.998;2022-11-30T04:53:33;5.80;99.90
1453;DHT22;720;47.738;7.998;2022-11-30T04:56:05;5.80;99.90
1453;DHT22;720;47.738;7.998;2022-11-30T04:58:31;5.80;99.90
1453;DHT22;720;47.738;7.998;2022-11-30T05:00:56;5.90;99.90
1453;DHT22;720;47.738;7.998;2022-11-30T05:03:22;5.80;99.90
1453;DHT22;720;47.738;7.998;2022-11-30T05:05:48;5.80;99.90
1453;DHT22;720;47.738;7.998;2022-11-30T05:08:13;5.90;99.90
1453;DHT22;720;47.738;7.998;2022-11-30T05:10:39;5.90;99.90
1453;DHT22;720;47.738;7.998;2022-11-30T05:13:04;5.80;99.90
1453;DHT22;720;47.738;7.998;2022-11-30T05:15:30;5.90;99.90
1453;DHT22;720;47.738;7.998;2022-11-30T05:18:00;5.90;99.90
1453;DHT22;720;47.738;7.998;2022-11-30T05:20:27;6.00;99.90
1453;DHT22;720;47.738;7.998;2022-11-30T05:22:52;6.10;99.90
1453;DHT22;720;47.738;7.998;2022-11-30T05:25:18;6.10;99.90
1453;DHT22;720;47.738;7.998;2022-11-30T05:27:44;6.20;99.90
1453;DHT22;720;47.738;7.998;2022-11-30T05:30:10;6.20;99.90
1453;DHT22;720;47.738;7.998;2022-11-30T05:32:36;6.30;99.90
1453;DHT22;720;47.738;7.998;2022-11-30T05:35:02;6.30;99.90
1453;DHT22;720;47.738;7.998;2022-11-30T05:37:28;6.30;99.90
1453;DHT22;720;47.738;7.998;2022-11-30T05:39:54;6.40;99.90
1453;DHT22;720;47.738;7.998;2022-11-30T05:42:19;6.30;99.90
1453;DHT22;720;47.738;7.998;2022-11-30T05:44:45;6.30;99.90
1453;DHT22;720;47.738;7.998;2022-11-30T05:47:12;6.30;99.90
1453;DHT22;720;47.738;7.998;2022-11-30T05:49:37;6.30;99.90
1453;DHT22;720;47.738;7.998;2022-11-30T05:52:03;6.30;99.90
1453;DHT22;720;47.738;7.998;2022-11-30T05:54:29;6.30;99.90
1453;DHT22;720;47.738;7.998;2022-11-30T05:56:54;6.30;99.90
1453;DHT22;720;47.738;7.998;2022-11-30T05:59:20;6.30;99.90
1453;DHT22;720;47.738;7.998;2022-11-30T06:01:45;6.40;99.90
1453;DHT22;720;47.738;7.998;2022-11-30T06:04:11;6.30;99.90
1453;DHT22;720;47.738;7.998;2022-11-30T06:06:38;6.30;99.90
1453;DHT22;720;47.738;7.998;2022-11-30T06:09:03;6.30;99.90
1453;DHT22;720;47.738;7.998;2022-11-30T06:11:29;6.30;99.90
1453;DHT22;720;47.738;7.998;2022-11-30T06:13:54;6.30;99.90
1453;DHT22;720;47.738;7.998;2022-11-30T06:16:20;6.30;99.90
1453;DHT22;720;47.738;7.998;2022-11-30T06:18:46;6.20;99.90
1453;DHT22;720;47.738;7.998;2022-11-30T06:21:11;6.20;99.90
1453;DHT22;720;47.738;7.998;2022-11-30T06:23:37;6.20;99.90
1453;DHT22;720;47.738;7.998;2022-11-30T06:26:09;6.30;99.90
1453;DHT22;720;47.738;7.998;2022-11-30T06:28:36;6.20;99.90
1453;DHT22;720;47.738;7.998;2022-11-30T06:31:03;6.20;99.90
1453;DHT22;720;47.738;7.998;2022-11-30T06:33:29;6.30;99.90
1453;DHT22;720;47.738;7.998;2022-11-30T06:35:55;6.20;99.90
1453;DHT22;720;47.738;7.998;2022-11-30T06:38:21;6.20;99.90
1453;DHT22;720;47.738;7.998;2022-11-30T06:40:47;6.20;99.90
1453;DHT22;720;47.738;7.998;2022-11-30T06:43:12;6.20;99.90
1453;DHT22;720;47.738;7.998;2022-11-30T06:45:38;6.20;99.90
1453;DHT22;720;47.738;7.998;2022-11-30T06:48:04;6.30;99.90
1453;DHT22;720;47.738;7.998;2022-11-30T06:50:30;6.30;99.90
1453;DHT22;720;47.738;7.998;2022-11-30T06:52:55;6.30;99.90
1453;DHT22;720;47.738;7.998;2022-11-30T06:55:22;6.30;99.90
1453;DHT22;720;47.738;7.998;2022-11-30T06:57:48;6.30;99.90
1453;DHT22;720;47.738;7.998;2022-11-30T07:00:15;6.30;99.90
1453;DHT22;720;47.738;7.998;2022-11-30T07:02:40;6.40;99.90
1453;DHT22;720;47.738;7.998;2022-11-30T07:05:06;6.40;99.90
1453;DHT22;720;47.738;7.998;2022-11-30T07:07:32;6.40;99.90
1453;DHT22;720;47.738;7.998;2022-11-30T07:09:58;6.50;99.90
1453;DHT22;720;47.738;7.998;2022-11-30T07:12:24;6.50;99.90
1453;DHT22;720;47.738;7.998;2022-11-30T07:14:50;6.60;99.90
1453;DHT22;720;47.738;7.998;2022-11-30T07:17:21;6.60;99.90
1453;DHT22;720;47.738;7.998;2022-11-30T07:19:47;6.60;99.90
1453;DHT22;720;47.738;7.998;2022-11-30T07:22:13;6.60;99.90
1453;DHT22;720;47.738;7.998;2022-11-30T07:24:39;6.60;99.90
1453;DHT22;720;47.738;7.998;2022-11-30T07:27:23;6.70;99.90
1453;DHT22;720;47.738;7.998;2022-11-30T07:29:49;6.70;99.90
1453;DHT22;720;47.738;7.998;2022-11-30T07:32:17;6.80;99.90
1453;DHT22;720;47.738;7.998;2022-11-30T07:34:42;6.80;99.90
1453;DHT22;720;47.738;7.998;2022-11-30T07:37:08;6.90;99.90
1453;DHT22;720;47.738;7.998;2022-11-30T07:39:33;6.90;99.90
1453;DHT22;720;47.738;7.998;2022-11-30T07:41:59;7.00;99.90
1453;DHT22;720;47.738;7.998;2022-11-30T07:44:25;7.10;99.90
1453;DHT22;720;47.738;7.998;2022-11-30T07:46:50;7.10;99.90
1453;DHT22;720;47.738;7.998;2022-11-30T07:49:16;7.10;99.90
1453;DHT22;720;47.738;7.998;2022-11-30T07:51:42;7.20;99.90
1453;DHT22;720;47.738;7.998;2022-11-30T07:54:08;7.20;99.90
1453;DHT22;720;47.738;7.998;2022-11-30T07:56:33;7.20;99.90
1453;DHT22;720;47.738;7.998;2022-11-30T07:59:00;7.30;99.90
1453;DHT22;720;47.738;7.998;2022-11-30T08:01:31;7.30;99.90
1453;DHT22;720;47.738;7.998;2022-11-30T08:03:57;7.40;99.90
1453;DHT22;720;47.738;7.998;2022-11-30T08:06:25;7.50;99.90
1453;DHT22;720;47.738;7.998;2022-11-30T08:08:52;7.40;99.90
1453;DHT22;720;47.738;7.998;2022-11-30T08:11:22;7.40;99.90
1453;DHT22;720;47.738;7.998;2022-11-30T08:13:48;7.40;99.90
1453;DHT22;720;47.738;7.998;2022-11-30T08:16:18;7.40;99.90
1453;DHT22;720;47.738;7.998;2022-11-30T08:18:44;7.50;99.90
1453;DHT22;720;47.738;7.998;2022-11-30T08:21:13;8.10;99.90
1453;DHT22;720;47.738;7.998;2022-11-30T08:23:43;8.80;99.90
1453;DHT22;720;47.738;7.998;2022-11-30T08:28:41;9.60;97.70
1453;DHT22;720;47.738;7.998;2022-11-30T08:31:09;9.30;97.50
1453;DHT22;720;47.738;7.998;2022-11-30T08:33:36;8.90;97.30
1453;DHT22;720;47.738;7.998;2022-11-30T08:36:10;8.40;97.90
1453;DHT22;720;47.738;7.998;2022-11-30T08:38:36;8.20;98.60
1453;DHT22;720;47.738;7.998;2022-11-30T08:41:03;8.20;98.70
1453;DHT22;720;47.738;7.998;2022-11-30T08:43:30;8.10;98.50
1453;DHT22;720;47.738;7.998;2022-11-30T08:45:56;7.90;99.10
1453;DHT22;720;47.738;7.998;2022-11-30T08:48:22;7.80;99.10
1453;DHT22;720;47.738;7.998;2022-11-30T08:50:47;7.60;97.50
1453;DHT22;720;47.738;7.998;2022-11-30T08:53:13;7.50;97.80
1453;DHT22;720;47.738;7.998;2022-11-30T08:55:39;7.60;98.60
1453;DHT22;720;47.738;7.998;2022-11-30T08:58:05;7.50;99.50
1453;DHT22;720;47.738;7.998;2022-11-30T09:00:30;7.50;99.90
1453;DHT22;720;47.738;7.998;2022-11-30T09:02:56;7.50;99.90
1453;DHT22;720;47.738;7.998;2022-11-30T09:05:22;7.60;99.90
1453;DHT22;720;47.738;7.998;2022-11-30T09:07:47;7.70;99.90
1453;DHT22;720;47.738;7.998;2022-11-30T09:10:13;7.70;99.90
1453;DHT22;720;47.738;7.998;2022-11-30T09:12:39;7.60;97.70
1453;DHT22;720;47.738;7.998;2022-11-30T09:15:06;7.60;97.40
1453;DHT22;720;47.738;7.998;2022-11-30T09:17:32;7.70;97.60
1453;DHT22;720;47.738;7.998;2022-11-30T09:19:59;7.70;97.50
1453;DHT22;720;47.738;7.998;2022-11-30T09:22:26;7.50;97.50
1453;DHT22;720;47.738;7.998;2022-11-30T09:24:52;7.40;97.90
1453;DHT22;720;47.738;7.998;2022-11-30T09:27:18;7.40;98.40
1453;DHT22;720;47.738;7.998;2022-11-30T09:29:44;7.50;98.10
1453;DHT22;720;47.738;7.998;2022-11-30T09:32:09;7.40;97.50
1453;DHT22;720;47.738;7.998;2022-11-30T09:34:35;7.20;96.80
1453;DHT22;720;47.738;7.998;2022-11-30T09:37:00;7.20;97.50
1453;DHT22;720;47.738;7.998;2022-11-30T09:39:26;7.20;98.30
1453;DHT22;720;47.738;7.998;2022-11-30T09:47:01;7.60;99.20
1453;DHT22;720;47.738;7.998;2022-11-30T09:49:35;7.70;97.70
1453;DHT22;720;47.738;7.998;2022-11-30T09:52:04;7.70;97.60
1453;DHT22;720;47.738;7.998;2022-11-30T09:54:39;7.70;97.20
1453;DHT22;720;47.738;7.998;2022-11-30T09:57:29;7.90;97.10
1453;DHT22;720;47.738;7.998;2022-11-30T09:59:58;8.00;97.60
1453;DHT22;720;47.738;7.998;2022-11-30T10:02:27;7.90;96.90
1453;DHT22;720;47.738;7.998;2022-11-30T10:04:53;7.90;97.30
1453;DHT22;720;47.738;7.998;2022-11-30T10:07:31;7.90;96.30
1453;DHT22;720;47.738;7.998;2022-11-30T10:21:57;7.50;95.70
1453;DHT22;720;47.738;7.998;2022-11-30T10:30:25;7.80;96.10
1453;DHT22;720;47.738;7.998;2022-11-30T10:32:58;8.00;95.90
1453;DHT22;720;47.738;7.998;2022-11-30T10:35:50;8.10;95.40
1453;DHT22;720;47.738;7.998;2022-11-30T10:38:27;8.20;96.20
1453;DHT22;720;47.738;7.998;2022-11-30T10:45:54;8.00;95.10
1453;DHT22;720;47.738;7.998;2022-11-30T10:50:48;7.90;95.60
1453;DHT22;720;47.738;7.998;2022-11-30T10:53:14;7.80;95.30
1453;DHT22;720;47.738;7.998;2022-11-30T10:55:51;7.90;95.50
1453;DHT22;720;47.738;7.998;2022-11-30T11:01:10;8.20;95.60
1453;DHT22;720;47.738;7.998;2022-11-30T11:07:08;8.60;95.30
1453;DHT22;720;47.738;7.998;2022-11-30T11:09:41;8.60;94.90
1453;DHT22;720;47.738;7.998;2022-11-30T11:12:23;8.60;94.50
1453;DHT22;720;47.738;7.998;2022-11-30T11:15:34;8.50;94.40
1453;DHT22;720;47.738;7.998;2022-11-30T11:18:20;8.60;94.70
1453;DHT22;720;47.738;7.998;2022-11-30T11:20:47;8.60;94.00
1453;DHT22;720;47.738;7.998;2022-11-30T11:23:37;8.40;93.60
1453;DHT22;720;47.738;7.998;2022-11-30T11:26:15;8.00;94.30
1453;DHT22;720;47.738;7.998;2022-11-30T11:28:44;8.00;94.90
1453;DHT22;720;47.738;7.998;2022-11-30T11:34:04;8.40;94.30
1453;DHT22;720;47.738;7.998;2022-11-30T11:36:32;8.60;93.80
1453;DHT22;720;47.738;7.998;2022-11-30T11:38:59;8.60;93.90
1453;DHT22;720;47.738;7.998;2022-11-30T11:41:31;8.60;94.00
1453;DHT22;720;47.738;7.998;2022-11-30T11:44:03;8.60;93.70
1453;DHT22;720;47.738;7.998;2022-11-30T11:46:32;8.50;93.80
1453;DHT22;720;47.738;7.998;2022-11-30T11:49:04;8.50;94.10
1453;DHT22;720;47.738;7.998;2022-11-30T11:51:34;8.60;94.30
1453;DHT22;720;47.738;7.998;2022-11-30T11:56:58;8.70;92.90
1453;DHT22;720;47.738;7.998;2022-11-30T12:02:02;8.50;92.60
1453;DHT22;720;47.738;7.998;2022-11-30T12:04:51;8.30;93.40
1453;DHT22;720;47.738;7.998;2022-11-30T12:07:24;8.40;94.10
1453;DHT22;720;47.738;7.998;2022-11-30T12:09:58;8.40;93.50
1453;DHT22;720;47.738;7.998;2022-11-30T12:12:27;8.40;93.80
1453;DHT22;720;47.738;7.998;2022-11-30T12:14:54;8.30;93.70
1453;DHT22;720;47.738;7.998;2022-11-30T12:20:16;8.00;93.90
1453;DHT22;720;47.738;7.998;2022-11-30T12:23:01;7.60;94.10
1453;DHT22;720;47.738;7.998;2022-11-30T12:25:39;7.50;94.50
1453;DHT22;720;47.738;7.998;2022-11-30T12:28:26;7.50;94.20
1453;DHT22;720;47.738;7.998;2022-11-30T12:31:13;7.50;95.00
1453;DHT22;720;47.738;7.998;2022-11-30T12:38:56;8.30;94.00
1453;DHT22;720;47.738;7.998;2022-11-30T12:44:36;8.40;93.30
1453;DHT22;720;47.738;7.998;2022-11-30T12:53:23;8.00;93.70
1453;DHT22;720;47.738;7.998;2022-11-30T13:04:06;8.50;93.30
1453;DHT22;720;47.738;7.998;2022-11-30T13:06:41;8.40;93.20
1453;DHT22;720;47.738;7.998;2022-11-30T13:09:27;8.10;93.10
1453;DHT22;720;47.738;7.998;2022-11-30T13:12:04;7.70;93.90
1453;DHT22;720;47.738;7.998;2022-11-30T13:14:32;7.40;94.40
1453;DHT22;720;47.738;7.998;2022-11-30T13:17:02;7.50;94.40
1453;DHT22;720;47.738;7.998;2022-11-30T13:19:34;7.80;94.40
1453;DHT22;720;47.738;7.998;2022-11-30T13:22:05;8.10;93.70
1453;DHT22;720;47.738;7.998;2022-11-30T13:24:44;8.20;92.90
1453;DHT22;720;47.738;7.998;2022-11-30T13:32:27;8.20;92.40
1453;DHT22;720;47.738;7.998;2022-11-30T13:38:02;8.10;93.20
1453;DHT22;720;47.738;7.998;2022-11-30T13:40:28;7.90;92.70
1453;DHT22;720;47.738;7.998;2022-11-30T13:42:55;7.80;92.80
1453;DHT22;720;47.738;7.998;2022-11-30T13:45:32;7.80;93.80
1453;DHT22;720;47.738;7.998;2022-11-30T13:48:16;7.60;93.80
1453;DHT22;720;47.738;7.998;2022-11-30T13:50:45;7.60;94.00
1453;DHT22;720;47.738;7.998;2022-11-30T13:53:22;7.60;93.90
1453;DHT22;720;47.738;7.998;2022-11-30T13:58:15;7.60;94.00
1453;DHT22;720;47.738;7.998;2022-11-30T14:05:45;7.30;94.40
1453;DHT22;720;47.738;7.998;2022-11-30T14:08:37;7.20;94.40
1453;DHT22;720;47.738;7.998;2022-11-30T14:11:36;7.20;95.10
1453;DHT22;720;47.738;7.998;2022-11-30T14:17:17;7.30;94.50
1453;DHT22;720;47.738;7.998;2022-11-30T14:19:45;7.30;94.70
1453;DHT22;720;47.738;7.998;2022-11-30T14:22:13;7.30;94.60
1453;DHT22;720;47.738;7.998;2022-11-30T14:24:41;7.30;94.40
1453;DHT22;720;47.738;7.998;2022-11-30T14:27:15;7.30;94.70
1453;DHT22;720;47.738;7.998;2022-11-30T14:29:43;7.30;95.10
1453;DHT22;720;47.738;7.998;2022-11-30T14:32:17;7.40;94.90
1453;DHT22;720;47.738;7.998;2022-11-30T14:34:48;7.40;95.00
1453;DHT22;720;47.738;7.998;2022-11-30T14:37:22;7.40;94.40
1453;DHT22;720;47.738;7.998;2022-11-30T14:39:49;7.40;94.10
1453;DHT22;720;47.738;7.998;2022-11-30T14:42:21;7.40;94.00
1453;DHT22;720;47.738;7.998;2022-11-30T14:44:47;7.40;94.10
1453;DHT22;720;47.738;7.998;2022-11-30T14:47:28;7.40;94.30
1453;DHT22;720;47.738;7.998;2022-11-30T14:49:57;7.30;93.90
1453;DHT22;720;47.738;7.998;2022-11-30T14:52:51;7.30;94.30
1453;DHT22;720;47.738;7.998;2022-11-30T14:58:27;7.30;93.90
1453;DHT22;720;47.738;7.998;2022-11-30T15:00:55;7.10;93.70
1453;DHT22;720;47.738;7.998;2022-11-30T15:03:32;7.00;93.90
1453;DHT22;720;47.738;7.998;2022-11-30T15:06:00;7.00;94.30
1453;DHT22;720;47.738;7.998;2022-11-30T15:08:40;7.00;94.60
1453;DHT22;720;47.738;7.998;2022-11-30T15:11:08;7.10;94.00
1453;DHT22;720;47.738;7.998;2022-11-30T15:13:39;7.10;94.20
1453;DHT22;720;47.738;7.998;2022-11-30T15:16:19;7.20;94.30
1453;DHT22;720;47.738;7.998;2022-11-30T15:18:46;7.10;94.40
1453;DHT22;720;47.738;7.998;2022-11-30T15:21:15;6.90;94.90
1453;DHT22;720;47.738;7.998;2022-11-30T15:23:42;6.90;94.50
1453;DHT22;720;47.738;7.998;2022-11-30T15:28:45;6.60;94.50
1453;DHT22;720;47.738;7.998;2022-11-30T15:31:16;6.50;94.60
1453;DHT22;720;47.738;7.998;2022-11-30T15:33:48;6.40;95.40
1453;DHT22;720;47.738;7.998;2022-11-30T15:36:15;6.30;95.50
1453;DHT22;720;47.738;7.998;2022-11-30T15:38:41;6.40;95.50
1453;DHT22;720;47.738;7.998;2022-11-30T15:41:20;6.30;95.70
1453;DHT22;720;47.738;7.998;2022-11-30T15:43:52;6.20;95.70
1453;DHT22;720;47.738;7.998;2022-11-30T15:46:30;6.10;96.00
1453;DHT22;720;47.738;7.998;2022-11-30T15:49:16;5.90;96.40
1453;DHT22;720;47.738;7.998;2022-11-30T15:51:44;5.80;96.10
1453;DHT22;720;47.738;7.998;2022-11-30T15:54:10;5.90;96.10
1453;DHT22;720;47.738;7.998;2022-11-30T15:56:36;6.00;95.50
1453;DHT22;720;47.738;7.998;2022-11-30T15:59:06;6.00;95.30
1453;DHT22;720;47.738;7.998;2022-11-30T16:01:58;6.10;95.30
1453;DHT22;720;47.738;7.998;2022-11-30T16:07:31;6.20;95.60
1453;DHT22;720;47.738;7.998;2022-11-30T16:10:23;6.10;95.60
1453;DHT22;720;47.738;7.998;2022-11-30T16:12:50;6.10;95.90
1453;DHT22;720;47.738;7.998;2022-11-30T16:15:18;6.20;95.40
1453;DHT22;720;47.738;7.998;2022-11-30T16:17:44;6.30;95.40
1453;DHT22;720;47.738;7.998;2022-11-30T16:20:13;6.30;95.20
1453;DHT22;720;47.738;7.998;2022-11-30T16:22:41;6.20;94.90
1453;DHT22;720;47.738;7.998;2022-11-30T16:25:18;6.20;95.30
1453;DHT22;720;47.738;7.998;2022-11-30T16:27:44;6.30;95.50
1453;DHT22;720;47.738;7.998;2022-11-30T16:30:17;6.40;95.30
1453;DHT22;720;47.738;7.998;2022-11-30T16:32:43;6.50;95.10
1453;DHT22;720;47.738;7.998;2022-11-30T16:35:22;6.50;94.50
1453;DHT22;720;47.738;7.998;2022-11-30T16:37:48;6.60;94.40
1453;DHT22;720;47.738;7.998;2022-11-30T16:40:14;6.70;94.50
1453;DHT22;720;47.738;7.998;2022-11-30T16:42:39;6.70;94.80
1453;DHT22;720;47.738;7.998;2022-11-30T16:45:13;6.70;94.70
1453;DHT22;720;47.738;7.998;2022-11-30T16:47:40;6.60;94.60
1453;DHT22;720;47.738;7.998;2022-11-30T16:50:07;6.60;94.80
1453;DHT22;720;47.738;7.998;2022-11-30T16:52:33;6.40;94.90
1453;DHT22;720;47.738;7.998;2022-11-30T16:54:59;6.40;95.10
1453;DHT22;720;47.738;7.998;2022-11-30T16:57:24;6.50;94.80
1453;DHT22;720;47.738;7.998;2022-11-30T16:59:50;6.50;94.50
1453;DHT22;720;47.738;7.998;2022-11-30T17:02:19;6.40;94.00
1453;DHT22;720;47.738;7.998;2022-11-30T17:04:46;6.30;94.10
1453;DHT22;720;47.738;7.998;2022-11-30T17:07:12;6.30;94.40
1453;DHT22;720;47.738;7.998;2022-11-30T17:09:37;6.30;95.10
1453;DHT22;720;47.738;7.998;2022-11-30T17:12:03;6.10;94.50
1453;DHT22;720;47.738;7.998;2022-11-30T17:14:29;5.80;94.70
1453;DHT22;720;47.738;7.998;2022-11-30T17:16:54;5.60;94.90
1453;DHT22;720;47.738;7.998;2022-11-30T17:19:20;5.70;95.00
1453;DHT22;720;47.738;7.998;2022-11-30T17:21:46;5.80;94.90
1453;DHT22;720;47.738;7.998;2022-11-30T17:24:13;5.80;94.80
1453;DHT22;720;47.738;7.998;2022-11-30T17:26:39;5.90;94.80
1453;DHT22;720;47.738;7.998;2022-11-30T17:29:05;5.80;95.00
1453;DHT22;720;47.738;7.998;2022-11-30T17:31:31;5.80;95.00
1453;DHT22;720;47.738;7.998;2022-11-30T17:33:57;5.90;95.10
1453;DHT22;720;47.738;7.998;2022-11-30T17:36:23;6.00;94.80
1453;DHT22;720;47.738;7.998;2022-11-30T17:38:48;6.00;94.30
1453;DHT22;720;47.738;7.998;2022-11-30T17:41:16;6.00;94.20
1453;DHT22;720;47.738;7.998;2022-11-30T17:43:42;5.70;94.90
1453;DHT22;720;47.738;7.998;2022-11-30T17:46:10;5.60;95.00
1453;DHT22;720;47.738;7.998;2022-11-30T17:48:36;5.30;95.40
1453;DHT22;720;47.738;7.998;2022-11-30T17:51:03;5.30;95.70
1453;DHT22;720;47.738;7.998;2022-11-30T17:53:29;5.10;96.00
1453;DHT22;720;47.738;7.998;2022-11-30T17:56:06;5.20;96.10
1453;DHT22;720;47.738;7.998;2022-11-30T17:58:32;5.20;96.40
1453;DHT22;720;47.738;7.998;2022-11-30T18:00:57;5.30;96.00
1453;DHT22;720;47.738;7.998;2022-11-30T18:03:23;5.10;96.00
1453;DHT22;720;47.738;7.998;2022-11-30T18:05:49;4.90;96.10
1453;DHT22;720;47.738;7.998;2022-11-30T18:08:16;4.70;96.50
1453;DHT22;720;47.738;7.998;2022-11-30T18:10:41;4.80;96.70
1453;DHT22;720;47.738;7.998;2022-11-30T18:13:10;4.90;96.70
1453;DHT22;720;47.738;7.998;2022-11-30T18:15:35;5.00;96.50
1453;DHT22;720;47.738;7.998;2022-11-30T18:18:01;5.10;96.50
1453;DHT22;720;47.738;7.998;2022-11-30T18:20:27;5.00;96.60
1453;DHT22;720;47.738;7.998;2022-11-30T18:22:53;4.80;96.90
1453;DHT22;720;47.738;7.998;2022-11-30T18:25:19;4.80;97.30
1453;DHT22;720;47.738;7.998;2022-11-30T18:27:44;4.70;97.60
1453;DHT22;720;47.738;7.998;2022-11-30T18:30:11;4.80;97.80
1453;DHT22;720;47.738;7.998;2022-11-30T18:32:36;4.90;98.10
1453;DHT22;720;47.738;7.998;2022-11-30T18:35:02;5.00;97.90
1453;DHT22;720;47.738;7.998;2022-11-30T18:37:28;5.20;97.70